createdAt,value
2023-05-10T00:00:18.012Z,12.37
2023-05-10T00:02:44.502Z,12.41
2023-05-10T00:05:10.851Z,12.45
2023-05-10T00:07:37.078Z,12.46
2023-05-10T00:10:03.360Z,12.47
2023-05-10T00:12:29.650Z,12.40
2023-05-10T00:14:55.902Z,12.35
2023-05-10T00:17:22.142Z,12.29
2023-05-10T00:19:48.369Z,12.24
2023-05-10T00:22:14.622Z,12.15
2023-05-10T00:24:40.937Z,12.09
2023-05-10T00:27:07.190Z,12.04
2023-05-10T00:29:33.432Z,11.98
2023-05-10T00:31:59.710Z,11.94
2023-05-10T00:34:25.984Z,11.92
2023-05-10T00:36:52.245Z,11.87
2023-05-10T00:39:18.476Z,11.88
2023-05-10T00:41:44.706Z,11.80
2023-05-10T00:44:10.959Z,11.81
2023-05-10T00:46:37.217Z,11.84
2023-05-10T00:49:03.486Z,11.90
2023-05-10T00:51:29.715Z,11.96
2023-05-10T00:53:55.957Z,11.87
2023-05-10T00:56:22.208Z,11.69
2023-05-10T00:58:48.465Z,11.73
2023-05-10T01:01:14.783Z,11.77
2023-05-10T01:03:41.117Z,11.80
2023-05-10T01:06:07.343Z,11.82
2023-05-10T01:08:33.641Z,11.89
2023-05-10T01:10:59.924Z,11.92
2023-05-10T01:13:26.331Z,11.92
2023-05-10T01:15:52.750Z,11.90
2023-05-10T01:18:19.052Z,11.94
2023-05-10T01:20:45.313Z,11.89
2023-05-10T01:23:11.588Z,11.82
2023-05-10T01:25:37.865Z,11.76
2023-05-10T01:28:04.108Z,11.83
2023-05-10T01:30:30.367Z,11.88
2023-05-10T01:32:56.674Z,11.91
2023-05-10T01:35:23.024Z,11.85
2023-05-10T01:37:49.284Z,11.86
2023-05-10T01:40:15.805Z,11.81
2023-05-10T01:42:42.243Z,11.72
2023-05-10T01:45:08.484Z,11.66
2023-05-10T01:47:34.764Z,11.61
2023-05-10T01:50:01.032Z,11.67
2023-05-10T01:52:27.283Z,11.69
2023-05-10T01:54:53.518Z,11.68
2023-05-10T01:57:19.778Z,11.68
2023-05-10T01:59:46.013Z,11.67
2023-05-10T02:02:12.304Z,11.67
2023-05-10T02:04:38.593Z,11.67
2023-05-10T02:07:04.835Z,11.62
2023-05-10T02:09:31.055Z,11.51
2023-05-10T02:11:57.302Z,11.43
2023-05-10T02:14:23.562Z,11.46
2023-05-10T02:16:49.845Z,11.53
2023-05-10T02:19:16.128Z,11.53
2023-05-10T02:21:42.362Z,11.58
2023-05-10T02:24:08.588Z,11.47
2023-05-10T02:26:34.909Z,11.46
2023-05-10T02:29:01.137Z,11.41
2023-05-10T02:31:27.444Z,11.38
2023-05-10T02:33:53.729Z,11.36
2023-05-10T02:36:19.970Z,11.36
2023-05-10T02:38:46.242Z,11.39
2023-05-10T02:41:12.488Z,11.37
2023-05-10T02:43:38.735Z,11.29
2023-05-10T02:46:05.060Z,11.21
2023-05-10T02:48:31.388Z,11.17
2023-05-10T02:50:57.650Z,10.99
2023-05-10T02:53:23.878Z,10.82
2023-05-10T02:55:50.137Z,10.80
2023-05-10T02:58:16.374Z,10.84
2023-05-10T03:00:42.641Z,10.81
2023-05-10T03:03:08.992Z,10.79
2023-05-10T03:05:35.281Z,10.78
2023-05-10T03:08:01.542Z,10.72
2023-05-10T03:10:27.779Z,10.77
2023-05-10T03:12:54.028Z,10.75
2023-05-10T03:15:20.369Z,10.68
2023-05-10T03:17:46.666Z,10.64
2023-05-10T03:20:12.964Z,10.66
2023-05-10T03:22:39.204Z,10.73
2023-05-10T03:25:05.512Z,10.81
2023-05-10T03:27:31.742Z,10.77
2023-05-10T03:29:57.990Z,10.76
2023-05-10T03:32:24.284Z,10.71
2023-05-10T03:34:50.580Z,10.71
2023-05-10T03:37:16.823Z,10.72
2023-05-10T03:39:43.072Z,10.47
2023-05-10T03:42:09.321Z,10.49
2023-05-10T03:44:35.611Z,10.51
2023-05-10T03:47:01.913Z,10.57
2023-05-10T03:49:28.252Z,10.54
2023-05-10T03:51:54.493Z,10.49
2023-05-10T03:54:20.728Z,10.35
2023-05-10T03:56:46.970Z,10.41
2023-05-10T03:59:13.227Z,10.43
2023-05-10T04:01:39.469Z,10.43
2023-05-10T04:04:05.776Z,10.39
2023-05-10T04:06:32.124Z,10.40
2023-05-10T04:08:58.399Z,10.35
2023-05-10T04:11:24.677Z,10.17
2023-05-10T04:13:51.015Z,10.16
2023-05-10T04:16:17.285Z,10.09
2023-05-10T04:18:43.629Z,9.94
2023-05-10T04:21:09.869Z,9.88
2023-05-10T04:23:36.104Z,9.87
2023-05-10T04:26:02.345Z,9.83
2023-05-10T04:28:28.647Z,9.79
2023-05-10T04:30:54.972Z,9.79
2023-05-10T04:33:21.212Z,9.78
2023-05-10T04:35:47.467Z,9.75
2023-05-10T04:38:13.699Z,9.77
2023-05-10T04:40:39.954Z,9.67
2023-05-10T04:43:06.283Z,9.60
2023-05-10T04:45:32.511Z,9.58
2023-05-10T04:47:58.789Z,9.53
2023-05-10T04:50:25.114Z,9.54
2023-05-10T04:52:52.706Z,9.52
2023-05-10T04:55:19.520Z,9.57
2023-05-10T04:57:45.757Z,9.64
2023-05-10T05:00:12.024Z,9.72
2023-05-10T05:02:38.360Z,9.82
2023-05-10T05:05:04.709Z,9.87
2023-05-10T05:07:30.961Z,10.00
2023-05-10T05:09:57.225Z,9.99
2023-05-10T05:12:23.518Z,10.05
2023-05-10T05:14:49.745Z,10.11
2023-05-10T05:17:16.458Z,10.16
2023-05-10T05:19:43.304Z,10.24
2023-05-10T05:22:09.597Z,10.31
2023-05-10T05:24:35.836Z,10.30
2023-05-10T05:27:02.072Z,10.39
2023-05-10T05:29:28.325Z,10.49
2023-05-10T05:31:55.616Z,10.55
2023-05-10T05:34:22.054Z,10.62
2023-05-10T05:36:48.285Z,10.73
2023-05-10T05:39:14.514Z,10.83
2023-05-10T05:41:40.788Z,10.96
2023-05-10T05:44:07.043Z,11.03
2023-05-10T05:46:33.287Z,11.13
2023-05-10T05:48:59.535Z,11.18
2023-05-10T05:51:25.794Z,11.31
2023-05-10T05:53:52.040Z,11.46
2023-05-10T05:56:18.308Z,11.54
2023-05-10T05:58:44.562Z,11.68
2023-05-10T06:01:10.822Z,11.76
2023-05-10T06:03:37.195Z,11.95
2023-05-10T06:06:03.605Z,12.02
2023-05-10T06:08:29.840Z,12.08
2023-05-10T06:10:56.228Z,12.11
2023-05-10T06:13:22.536Z,12.19
2023-05-10T06:15:48.832Z,12.24
2023-05-10T06:18:15.121Z,12.28
2023-05-10T06:20:41.397Z,12.37
2023-05-10T06:23:07.814Z,12.50
2023-05-10T06:25:34.071Z,12.52
2023-05-10T06:28:00.331Z,12.60
2023-05-10T06:30:26.660Z,12.72
2023-05-10T06:32:52.964Z,12.83
2023-05-10T06:35:19.447Z,12.95
2023-05-10T06:37:46.016Z,13.01
2023-05-10T06:40:12.515Z,12.99
2023-05-10T06:42:38.979Z,12.88
2023-05-10T06:45:05.298Z,13.00
2023-05-10T06:47:31.583Z,13.09
2023-05-10T06:49:57.854Z,13.26
2023-05-10T06:52:24.105Z,13.36
2023-05-10T06:54:50.507Z,13.48
2023-05-10T06:57:30.672Z,13.65
2023-05-10T06:59:57.866Z,13.83
2023-05-10T07:02:24.269Z,13.93
2023-05-10T07:04:50.700Z,14.04
2023-05-10T07:07:17.106Z,14.12
2023-05-10T07:09:43.474Z,14.20
2023-05-10T07:12:11.599Z,14.24
2023-05-10T07:14:39.217Z,14.25
2023-05-10T07:17:05.608Z,14.31
2023-05-10T07:19:32.096Z,14.31
2023-05-10T07:21:58.418Z,14.30
2023-05-10T07:24:24.950Z,14.45
2023-05-10T07:26:51.339Z,14.58
2023-05-10T07:29:17.875Z,14.77
2023-05-10T07:31:44.273Z,14.90
2023-05-10T07:34:10.691Z,14.96
2023-05-10T07:36:36.938Z,14.93
2023-05-10T07:39:03.200Z,14.44
2023-05-10T07:41:29.461Z,14.56
2023-05-10T07:43:55.703Z,14.74
2023-05-10T07:46:22.060Z,14.78
2023-05-10T07:48:48.398Z,14.66
2023-05-10T07:51:14.637Z,14.45
2023-05-10T07:53:40.887Z,14.59
2023-05-10T07:56:07.208Z,14.72
2023-05-10T07:58:33.508Z,14.68
2023-05-10T08:00:59.758Z,14.74
2023-05-10T08:03:26.131Z,14.90
2023-05-10T08:05:52.480Z,15.02
2023-05-10T08:08:18.889Z,15.15
2023-05-10T08:10:45.168Z,15.20
2023-05-10T08:13:11.496Z,15.18
2023-05-10T08:15:37.785Z,15.06
2023-05-10T08:18:04.047Z,14.94
2023-05-10T08:20:30.395Z,14.87
2023-05-10T08:22:56.636Z,14.87
2023-05-10T08:25:22.950Z,15.10
2023-05-10T08:27:49.347Z,15.37
2023-05-10T08:30:15.627Z,15.67
2023-05-10T08:32:41.916Z,15.24
2023-05-10T08:35:08.251Z,14.95
2023-05-10T08:37:34.517Z,15.45
2023-05-10T08:40:00.797Z,15.76
2023-05-10T08:42:27.075Z,15.59
2023-05-10T08:44:53.326Z,15.74
2023-05-10T08:47:19.649Z,15.93
2023-05-10T08:49:45.935Z,16.01
2023-05-10T08:52:12.187Z,15.95
2023-05-10T08:54:38.509Z,15.92
2023-05-10T08:57:04.876Z,16.04
2023-05-10T08:59:31.197Z,15.30
2023-05-10T09:01:57.560Z,14.32
2023-05-10T09:04:24.000Z,14.37
2023-05-10T09:06:50.417Z,14.44
2023-05-10T09:09:16.678Z,14.69
2023-05-10T09:11:43.008Z,14.92
2023-05-10T09:14:09.351Z,14.99
2023-05-10T09:16:37.292Z,14.99
2023-05-10T09:19:03.672Z,15.33
2023-05-10T09:21:30.016Z,15.50
2023-05-10T09:23:56.282Z,14.92
2023-05-10T09:26:22.700Z,14.53
2023-05-10T09:28:49.035Z,14.53
2023-05-10T09:31:15.339Z,14.20
2023-05-10T09:33:41.629Z,14.09
2023-05-10T09:36:07.905Z,14.25
2023-05-10T09:38:34.124Z,14.71
2023-05-10T09:41:00.390Z,15.12
2023-05-10T09:43:26.642Z,15.54
2023-05-10T09:45:52.957Z,15.83
2023-05-10T09:48:19.231Z,16.13
2023-05-10T09:50:45.465Z,16.37
2023-05-10T09:53:11.703Z,16.47
2023-05-10T09:55:37.944Z,16.58
2023-05-10T09:58:04.199Z,16.59
2023-05-10T10:00:30.432Z,16.50
2023-05-10T10:02:56.734Z,16.52
2023-05-10T10:05:22.994Z,16.35
2023-05-10T10:07:49.239Z,16.19
2023-05-10T10:10:15.468Z,16.29
2023-05-10T10:12:41.768Z,15.95
2023-05-10T10:15:08.061Z,15.75
2023-05-10T10:17:34.303Z,15.79
2023-05-10T10:20:00.606Z,15.75
2023-05-10T10:22:26.841Z,15.67
2023-05-10T10:24:53.145Z,15.66
2023-05-10T10:27:19.370Z,15.77
2023-05-10T10:29:45.767Z,15.91
2023-05-10T10:32:12.080Z,16.27
2023-05-10T10:34:38.321Z,16.62
2023-05-10T10:37:04.608Z,16.67
2023-05-10T10:39:30.894Z,16.68
2023-05-10T10:41:57.152Z,16.92
2023-05-10T10:44:23.491Z,17.24
2023-05-10T10:46:52.056Z,17.58
2023-05-10T10:49:18.316Z,17.88
2023-05-10T10:51:44.602Z,17.37
2023-05-10T10:54:10.902Z,17.83
2023-05-10T10:56:37.272Z,17.91
2023-05-10T10:59:03.568Z,17.97
2023-05-10T11:01:29.861Z,17.28
2023-05-10T11:03:56.214Z,17.32
2023-05-10T11:15:13.431Z,17.86
2023-05-10T11:23:50.221Z,16.10
2023-05-10T11:26:25.082Z,16.35
2023-05-10T11:32:24.407Z,15.88
2023-05-10T11:35:28.227Z,15.58
2023-05-10T15:36:43.995Z,15.32
2023-05-10T15:49:00.427Z,15.18
2023-05-10T15:51:42.869Z,15.01
2023-05-10T16:02:59.704Z,15.70
2023-05-10T16:11:40.287Z,15.25
2023-05-10T16:17:38.445Z,14.57
2023-05-10T16:39:59.838Z,14.14
2023-05-10T17:08:31.062Z,13.85
2023-05-10T17:17:38.432Z,14.02
2023-05-10T17:20:41.939Z,14.14
2023-05-10T17:29:29.998Z,14.21
2023-05-10T17:32:46.876Z,13.77
2023-05-10T17:35:21.748Z,13.80
2023-05-10T17:38:30.432Z,13.68
2023-05-10T17:44:17.567Z,13.68
2023-05-10T17:50:58.343Z,13.27
2023-05-10T17:54:24.423Z,13.24
2023-05-10T17:57:02.305Z,13.39
2023-05-10T17:59:48.819Z,13.31
2023-05-10T18:25:40.790Z,12.91
2023-05-10T19:46:47.447Z,11.13
2023-05-10T19:52:29.522Z,11.05
2023-05-10T21:48:41.413Z,8.21
2023-05-10T21:58:05.756Z,8.24
2023-05-10T22:46:33.820Z,9.00
